Time;durP1;ratioP1;P1;durP2;ratioP2;P2;SDS_P1;SDS_P2;PMS_P1;PMS_P2;Temp;Humidity;BMP_temperature;BMP_pressure;BME280_temperature;BME280_humidity;BME280_pressure;Samples;Min_cycle;Max_cycle;Signal;HPM_P1;HPM_P2
2022/04/27 00:00:08;;;;;;;;;;;;;;;9.02;65.75;98518.84;3224184;22;20525;-76
2022/04/27 00:01:33;;;;;;;;;;;;;;;8.97;65.70;98525.94;3223502;22;19995;-78
2022/04/27 00:02:49;;;;;;;;;;;;;;;8.95;66.14;98523.34;3223662;23;19930;-76
2022/04/27 00:04:04;;;;;;;;;;;;;;;8.96;65.99;98526.81;3223805;23;19973;-76
2022/04/27 00:05:20;;;;;;;;;;;;;;;8.97;66.33;98525.94;3224212;23;19930;-76
2022/04/27 00:06:36;;;;;;;;;;;;;;;8.95;66.45;98525.09;3224021;22;19923;-76
2022/04/27 00:07:51;;;;;;;;;;;;;;;8.95;66.21;98523.34;3223926;22;19924;-76
2022/04/27 00:09:07;;;;;;;;;;;;;;;8.90;66.17;98518.19;3223958;23;19946;-76
2022/04/27 00:10:22;;;;;;;;;;;;;;;8.88;65.53;98517.38;3224079;23;20323;-76
2022/04/27 00:11:38;;;;;;;;;;;;;;;8.97;65.46;98526.78;3223844;22;20349;-76
2022/04/27 00:12:54;;;;;;;;;;;;;;;8.95;65.82;98519.88;3224401;22;20007;-76
2022/04/27 00:14:09;;;;;;;;;;;;;;;8.99;65.40;98521.53;3223813;23;20292;-75
2022/04/27 00:15:27;;;;;;;;;;;;;;;9.01;65.27;98520.63;3223969;23;19924;-76
2022/04/27 00:16:42;;;;;;;;;;;;;;;8.99;65.82;98521.53;3224001;22;19973;-75
2022/04/27 00:17:57;;;;;;;;;;;;;;;8.93;65.89;98522.50;3224274;22;19973;-75
2022/04/27 00:19:13;;;;;;;;;;;;;;;8.92;66.03;98522.53;3223623;22;19930;-76
2022/04/27 00:20:29;;;;;;;;;;;;;;;8.88;66.49;98520.00;3223778;23;20006;-75
2022/04/27 00:21:44;;;;;;;;;;;;;;;8.84;65.75;98525.28;3223637;23;19931;-77
2022/04/27 00:22:59;;;;;;;;;;;;;;;8.82;66.07;98522.72;3223426;23;19946;-76
2022/04/27 00:24:15;;;;;;;;;;;;;;;8.79;66.51;98519.31;3223615;23;19955;-75
2022/04/27 00:25:32;;;;;;;;;;;;;;;8.78;67.13;98526.28;3223576;23;19924;-76
2022/04/27 00:26:47;;;;;;;;;;;;;;;8.78;66.33;98521.03;3223771;22;19927;-75
2022/04/27 00:28:03;;;;;;;;;;;;;;;8.78;66.51;98521.03;3223709;22;20258;-76
2022/04/27 00:29:19;;;;;;;;;;;;;;;8.78;66.67;98515.81;3223351;22;20388;-76
2022/04/27 00:30:34;;;;;;;;;;;;;;;8.78;66.49;98517.59;3223488;23;19950;-77
2022/04/27 00:31:50;;;;;;;;;;;;;;;8.81;66.71;98518.41;3223595;23;19923;-75
2022/04/27 00:33:06;;;;;;;;;;;;;;;8.78;67.44;98521.03;3223591;23;19927;-76
2022/04/27 00:34:21;;;;;;;;;;;;;;;8.78;66.81;98520.22;3223998;22;19924;-77
2022/04/27 00:35:37;;;;;;;;;;;;;;;8.74;67.08;98520.28;3223628;22;19923;-77
2022/04/27 00:36:52;;;;;;;;;;;;;;;8.76;66.72;98525.44;3222512;23;19989;-76
2022/04/27 00:38:08;;;;;;;;;;;;;;;8.74;66.70;98524.63;3223243;23;20357;-77
2022/04/27 00:39:23;;;;;;;;;;;;;;;8.74;67.23;98522.88;3223751;22;19920;-76
2022/04/27 00:40:39;;;;;;;;;;;;;;;8.74;67.68;98515.06;3223787;23;19958;-76
2022/04/27 00:42:00;;;;;;;;;;;;;;;8.72;67.45;98521.19;3223198;23;20213;-76
2022/04/27 00:43:33;;;;;;;;;;;;;;;8.70;67.62;98520.34;3223583;22;19993;-76
2022/04/27 00:44:48;;;;;;;;;;;;;;;8.71;67.69;98527.28;3223766;22;19920;-78
2022/04/27 00:46:04;;;;;;;;;;;;;;;8.69;67.88;98526.47;3223564;22;20282;-77
2022/04/27 00:47:20;;;;;;;;;;;;;;;8.69;68.13;98529.91;3223419;22;20192;-81
2022/04/27 00:48:36;;;;;;;;;;;;;;;8.68;68.31;98536.03;3223836;23;19931;-76
2022/04/27 00:49:52;;;;;;;;;;;;;;;8.67;68.25;98534.31;3223715;22;20259;-76
2022/04/27 00:51:10;;;;;;;;;;;;;;;8.68;67.90;98540.41;3223884;22;20465;-78
2022/04/27 00:52:25;;;;;;;;;;;;;;;8.66;68.31;98535.22;3223756;22;19931;-77
2022/04/27 00:53:41;;;;;;;;;;;;;;;8.64;68.62;98539.59;3223621;23;20288;-76
2022/04/27 00:54:56;;;;;;;;;;;;;;;8.65;68.73;98540.44;3223689;22;20302;-76
2022/04/27 00:56:14;;;;;;;;;;;;;;;8.62;68.75;98531.78;3223748;22;19923;-79
2022/04/27 00:57:30;;;;;;;;;;;;;;;8.57;68.58;98536.25;3223667;22;19938;-76
2022/04/27 00:58:47;;;;;;;;;;;;;;;8.58;68.56;98537.09;3223669;22;20372;-76
2022/04/27 01:00:03;;;;;;;;;;;;;;;8.59;68.20;98537.06;3224067;22;19924;-77
2022/04/27 01:01:19;;;;;;;;;;;;;;;8.56;69.45;98536.25;3223517;22;19920;-77
2022/04/27 01:02:34;;;;;;;;;;;;;;;8.55;69.55;98530.19;3223343;22;19934;-77
2022/04/27 01:03:50;;;;;;;;;;;;;;;8.50;69.40;98536.34;3224095;22;20338;-77
2022/04/27 01:05:09;;;;;;;;;;;;;;;8.51;69.56;98538.09;3223726;22;20325;-77
2022/04/27 01:06:25;;;;;;;;;;;;;;;8.49;69.41;98545.91;3223633;22;19942;-77
2022/04/27 01:07:41;;;;;;;;;;;;;;;8.47;69.27;98542.47;3223387;23;19924;-78
2022/04/27 01:08:56;;;;;;;;;;;;;;;8.46;69.46;98545.97;3223554;22;19923;-78
2022/04/27 01:10:12;;;;;;;;;;;;;;;8.39;69.66;98547.00;3223628;22;19919;-77
2022/04/27 01:11:27;;;;;;;;;;;;;;;8.37;69.44;98546.13;3223186;22;19929;-77
2022/04/27 01:12:43;;;;;;;;;;;;;;;8.35;70.38;98546.16;3223291;23;20402;-77
2022/04/27 01:13:58;;;;;;;;;;;;;;;8.38;70.25;98545.22;3223192;22;19923;-77
2022/04/27 01:15:28;;;;;;;;;;;;;;;8.36;69.79;98550.50;3223622;23;19928;-77
2022/04/27 01:16:51;;;;;;;;;;;;;;;8.34;70.49;98553.13;3223558;23;19959;-77
2022/04/27 01:18:10;;;;;;;;;;;;;;;8.34;71.43;98547.91;3223414;22;19924;-76
2022/04/27 01:19:26;;;;;;;;;;;;;;;8.29;70.49;98554.09;3223481;22;19947;-76
2022/04/27 01:20:44;;;;;;;;;;;;;;;8.30;69.64;98548.84;3223659;23;20255;-77
2022/04/27 01:22:01;;;;;;;;;;;;;;;8.32;70.37;98554.06;3223600;22;20251;-77
2022/04/27 01:23:17;;;;;;;;;;;;;;;8.33;70.32;98556.63;3223095;22;19930;-77
2022/04/27 01:24:32;;;;;;;;;;;;;;;8.32;70.36;98554.06;3223943;22;20495;-78
2022/04/27 01:25:50;;;;;;;;;;;;;;;8.28;70.26;98561.06;3223736;22;19919;-77
2022/04/27 01:27:05;;;;;;;;;;;;;;;8.27;70.90;98554.13;3223402;22;20031;-76
2022/04/27 01:28:22;;;;;;;;;;;;;;;8.32;70.58;98560.13;3224034;23;20383;-76
2022/04/27 01:29:38;;;;;;;;;;;;;;;8.33;69.71;98561.00;3223206;22;20765;-76
2022/04/27 01:30:57;;;;;;;;;;;;;;;8.33;70.25;98561.00;3223494;22;19924;-77
2022/04/27 01:32:12;;;;;;;;;;;;;;;8.45;69.77;98557.31;3223300;22;19931;-77
2022/04/27 01:33:29;;;;;;;;;;;;;;;8.44;69.95;98558.19;3223165;22;19923;-77
2022/04/27 01:34:45;;;;;;;;;;;;;;;8.39;69.28;98560.88;3223559;22;20037;-77
2022/04/27 01:36:00;;;;;;;;;;;;;;;8.37;69.68;98554.81;3223405;23;19919;-77
2022/04/27 01:38:50;;;;;;;;;;;;;;;8.31;69.71;98565.34;3223588;23;19930;-76
2022/04/27 01:40:06;;;;;;;;;;;;;;;8.31;70.10;98563.63;3224298;23;19928;-76
2022/04/27 01:41:21;;;;;;;;;;;;;;;8.34;69.66;98562.72;3223275;22;19920;-77
2022/04/27 01:42:37;;;;;;;;;;;;;;;8.42;69.44;98563.44;3223395;23;20311;-76
2022/04/27 01:43:52;;;;;;;;;;;;;;;8.44;70.20;98571.25;3223274;22;19920;-76
2022/04/27 01:45:08;;;;;;;;;;;;;;;8.43;69.22;98570.34;3223262;22;20390;-77
2022/04/27 01:46:23;;;;;;;;;;;;;;;8.48;68.78;98570.28;3223522;22;19924;-76
2022/04/27 01:47:39;;;;;;;;;;;;;;;8.57;68.39;98572.78;3223355;22;19930;-78
2022/04/27 01:48:55;;;;;;;;;;;;;;;8.53;69.04;98571.13;3223586;23;19934;-76
2022/04/27 01:50:10;;;;;;;;;;;;;;;8.42;69.86;98570.41;3223742;22;19985;-77
2022/04/27 01:54:34;;;;;;;;;;;;;;;8.23;71.22;98578.53;3223885;23;20339;-77
2022/04/27 01:55:50;;;;;;;;;;;;;;;8.20;71.75;98575.97;3223292;23;19940;-84
2022/04/27 01:57:07;;;;;;;;;;;;;;;8.21;71.62;98582.91;3223433;22;19931;-77
2022/04/27 01:58:22;;;;;;;;;;;;;;;8.20;71.77;98586.41;3223253;22;19930;-77
2022/04/27 01:59:38;;;;;;;;;;;;;;;8.17;71.50;98586.47;3223511;22;20327;-77
2022/04/27 02:00:53;;;;;;;;;;;;;;;8.14;71.35;98584.75;3223381;23;20042;-76
2022/04/27 02:02:09;;;;;;;;;;;;;;;8.15;71.61;98593.44;3223074;22;19978;-76
2022/04/27 02:03:25;;;;;;;;;;;;;;;8.13;71.84;98582.19;3223211;22;19947;-79
2022/04/27 02:04:42;;;;;;;;;;;;;;;8.11;72.36;98589.19;3223539;23;19923;-76
2022/04/27 02:05:59;;;;;;;;;;;;;;;8.10;72.28;98584.81;3223662;22;20376;-76
2022/04/27 02:07:14;;;;;;;;;;;;;;;8.07;72.05;98588.34;3223239;22;19929;-77
2022/04/27 02:08:30;;;;;;;;;;;;;;;8.05;72.28;98588.38;3223245;22;19923;-75
2022/04/27 02:09:45;;;;;;;;;;;;;;;8.04;72.56;98591.00;3223244;22;20342;-76
2022/04/27 02:11:01;;;;;;;;;;;;;;;8.03;72.81;98592.75;3223216;23;20262;-77
2022/04/27 02:12:16;;;;;;;;;;;;;;;8.04;72.73;98591.00;3223551;22;19924;-76
2022/04/27 02:13:33;;;;;;;;;;;;;;;7.98;72.83;98586.75;3223695;22;19954;-78
2022/04/27 02:14:49;;;;;;;;;;;;;;;7.99;72.75;98591.09;3223604;22;20259;-76
2022/04/27 02:16:04;;;;;;;;;;;;;;;7.99;73.47;98585.00;3223238;22;20390;-76
2022/04/27 02:17:20;;;;;;;;;;;;;;;7.99;72.78;98593.69;3223154;23;19931;-79
2022/04/27 02:18:35;;;;;;;;;;;;;;;7.95;73.43;98589.38;3223207;22;20517;-76
2022/04/27 02:19:51;;;;;;;;;;;;;;;7.93;72.70;98591.16;3223579;22;19969;-75
2022/04/27 02:21:06;;;;;;;;;;;;;;;7.92;73.41;98592.03;3223325;23;19924;-76
2022/04/27 02:22:21;;;;;;;;;;;;;;;7.95;72.72;98591.13;3222987;22;19923;-77
2022/04/27 02:23:37;;;;;;;;;;;;;;;7.97;72.79;98592.84;3223809;22;19924;-76
2022/04/27 02:24:52;;;;;;;;;;;;;;;7.97;73.36;98594.59;3223614;23;19923;-76
2022/04/27 02:26:08;;;;;;;;;;;;;;;7.93;73.25;98598.13;3224610;23;19955;-76
2022/04/27 02:27:23;;;;;;;;;;;;;;;7.90;73.43;98599.03;3224643;22;19927;-77
2022/04/27 02:28:39;;;;;;;;;;;;;;;7.90;73.64;98604.25;3224418;23;19923;-76
2022/04/27 02:29:55;;;;;;;;;;;;;;;7.86;73.80;98602.56;3224458;23;19923;-76
2022/04/27 02:31:10;;;;;;;;;;;;;;;7.82;74.10;98600.88;3224318;22;19991;-76
2022/04/27 02:32:26;;;;;;;;;;;;;;;7.77;74.83;98608.78;3224455;23;19931;-76
2022/04/27 02:33:42;;;;;;;;;;;;;;;7.75;74.80;98605.31;3224504;23;19924;-75
2022/04/27 02:34:57;;;;;;;;;;;;;;;7.75;75.13;98611.41;3224681;22;19927;-76
2022/04/27 02:36:12;;;;;;;;;;;;;;;7.73;74.44;98607.94;3224620;23;19931;-76
2022/04/27 02:37:29;;;;;;;;;;;;;;;7.70;74.73;98612.34;3229966;23;19923;-76
2022/04/27 02:38:45;;;;;;;;;;;;;;;7.66;74.98;98613.28;3224655;22;19942;-76
2022/04/27 02:40:00;;;;;;;;;;;;;;;7.53;75.21;98613.44;3224239;23;19928;-76
2022/04/27 02:41:16;;;;;;;;;;;;;;;7.49;75.30;98617.81;3224673;23;19924;-76
2022/04/27 02:42:31;;;;;;;;;;;;;;;7.46;75.40;98619.59;3224265;23;19958;-76
2022/04/27 02:43:49;;;;;;;;;;;;;;;7.46;75.36;98614.38;3224349;22;19969;-76
2022/04/27 02:45:04;;;;;;;;;;;;;;;7.44;75.12;98614.41;3224334;22;19943;-76
2022/04/27 02:46:19;;;;;;;;;;;;;;;7.44;75.33;98621.34;3224387;22;19974;-76
2022/04/27 02:47:35;;;;;;;;;;;;;;;7.45;76.82;98617.84;3223830;23;19974;-76
2022/04/27 02:51:58;;;;;;;;;;;;;;;7.35;76.75;98620.59;3224417;23;19924;-76
2022/04/27 02:53:13;;;;;;;;;;;;;;;7.34;76.55;98623.22;3223941;23;20445;-77
2022/04/27 02:54:29;;;;;;;;;;;;;;;7.30;76.91;98629.34;3224385;23;19930;-76
2022/04/27 02:55:45;;;;;;;;;;;;;;;7.24;78.08;98632.88;3224437;23;19970;-76
2022/04/27 02:57:00;;;;;;;;;;;;;;;7.18;78.03;98631.19;3224461;22;19930;-76
2022/04/27 02:58:15;;;;;;;;;;;;;;;7.16;78.08;98632.97;3224299;22;19924;-76
2022/04/27 02:59:31;;;;;;;;;;;;;;;7.15;77.79;98641.66;3224384;22;19992;-78
2022/04/27 03:00:47;;;;;;;;;;;;;;;7.09;78.26;98636.50;3224152;22;19927;-76
2022/04/27 03:02:03;;;;;;;;;;;;;;;7.03;78.53;98636.59;3223851;22;20326;-76
2022/04/27 03:03:18;;;;;;;;;;;;;;;7.00;78.19;98634.84;3224134;22;20314;-76
2022/04/27 03:04:34;;;;;;;;;;;;;;;6.95;78.45;98635.78;3224174;23;19924;-77
2022/04/27 03:05:49;;;;;;;;;;;;;;;6.97;80.48;98641.84;3223999;22;19928;-76
2022/04/27 03:07:05;;;;;;;;;;;;;;;6.98;79.73;98639.22;3223803;23;19978;-75
2022/04/27 03:08:20;;;;;;;;;;;;;;;6.94;80.00;98640.16;3223747;22;19927;-76
2022/04/27 03:09:36;;;;;;;;;;;;;;;6.99;80.15;98645.31;3223818;23;19978;-76
2022/04/27 03:10:51;;;;;;;;;;;;;;;6.99;79.69;98645.31;3224051;22;19923;-76
2022/04/27 03:12:07;;;;;;;;;;;;;;;6.89;80.15;98645.38;3223590;23;20006;-75
2022/04/27 03:13:22;;;;;;;;;;;;;;;6.84;79.83;98647.16;3224278;23;19929;-75
2022/04/27 03:14:38;;;;;;;;;;;;;;;6.87;80.36;98648.88;3224233;23;20409;-76
2022/04/27 03:15:53;;;;;;;;;;;;;;;6.92;79.91;98649.72;3223991;22;19923;-76
2022/04/27 03:17:09;;;;;;;;;;;;;;;7.10;79.46;98659.06;3224249;23;19930;-75
2022/04/27 03:18:25;;;;;;;;;;;;;;;7.16;78.50;98658.13;3224270;23;19931;-76
2022/04/27 03:19:41;;;;;;;;;;;;;;;7.10;78.54;98648.63;3224197;22;19924;-78
2022/04/27 03:20:56;;;;;;;;;;;;;;;7.07;78.67;98653.88;3224266;22;19930;-75
2022/04/27 03:22:12;;;;;;;;;;;;;;;7.05;79.16;98651.31;3224113;22;19924;-75
2022/04/27 03:23:28;;;;;;;;;;;;;;;6.99;79.20;98656.56;3223918;23;19930;-77
2022/04/27 03:24:44;;;;;;;;;;;;;;;6.97;79.49;98657.44;3224170;22;20457;-75
2022/04/27 03:25:59;;;;;;;;;;;;;;;6.92;79.98;98660.13;3224350;22;19942;-75
2022/04/27 03:27:15;;;;;;;;;;;;;;;6.90;79.95;98662.72;3223788;23;19923;-75
2022/04/27 03:28:30;;;;;;;;;;;;;;;6.75;79.73;98665.47;3224229;22;19920;-75
2022/04/27 03:29:46;;;;;;;;;;;;;;;6.68;79.99;98662.06;3223702;23;19931;-75
2022/04/27 03:31:01;;;;;;;;;;;;;;;6.69;80.42;98660.31;3224156;23;20304;-75
2022/04/27 03:32:16;;;;;;;;;;;;;;;6.69;79.86;98662.91;3223567;23;19923;-78
2022/04/27 03:33:32;;;;;;;;;;;;;;;6.62;81.26;98660.38;3224090;23;20389;-75
2022/04/27 03:34:47;;;;;;;;;;;;;;;6.56;81.97;98663.00;3224071;23;19924;-76
2022/04/27 03:36:03;;;;;;;;;;;;;;;6.53;82.08;98663.03;3223690;23;19923;-75
2022/04/27 03:37:19;;;;;;;;;;;;;;;6.49;82.12;98670.00;3223965;22;20006;-76
2022/04/27 03:38:35;;;;;;;;;;;;;;;6.49;82.21;98667.41;3221476;23;20014;-75
2022/04/27 03:39:50;;;;;;;;;;;;;;;6.49;81.74;98669.16;3224184;22;19920;-75
2022/04/27 03:41:06;;;;;;;;;;;;;;;6.50;81.66;98663.06;3224008;22;19930;-75
2022/04/27 03:42:21;;;;;;;;;;;;;;;6.51;81.99;98664.78;3223693;23;20005;-75
2022/04/27 03:43:37;;;;;;;;;;;;;;;6.53;81.95;98670.84;3222804;23;19924;-75
2022/04/27 03:44:53;;;;;;;;;;;;;;;6.57;81.56;98680.38;3223733;22;19977;-76
2022/04/27 03:46:08;;;;;;;;;;;;;;;6.56;81.60;98676.03;3223950;23;19924;-75
2022/04/27 03:47:23;;;;;;;;;;;;;;;6.55;81.54;98676.91;3223736;23;20011;-76
2022/04/27 03:48:39;;;;;;;;;;;;;;;6.57;81.15;98671.69;3224105;23;20354;-75
2022/04/27 03:49:59;;;;;;;;;;;;;;;6.59;81.06;98682.94;3223418;22;19928;-76
2022/04/27 03:51:15;;;;;;;;;;;;;;;6.53;81.45;98678.66;3223632;22;19953;-75
2022/04/27 03:52:30;;;;;;;;;;;;;;;6.53;81.48;98683.84;3223145;23;19920;-75
2022/04/27 03:53:46;;;;;;;;;;;;;;;6.49;81.74;98682.16;3223363;22;19923;-77
2022/04/27 03:55:02;;;;;;;;;;;;;;;6.40;81.73;98688.28;3223446;23;19927;-77
2022/04/27 03:56:17;;;;;;;;;;;;;;;6.32;82.15;98683.16;3223425;22;19927;-75
2022/04/27 03:57:33;;;;;;;;;;;;;;;6.24;82.06;98691.88;3223598;23;19999;-75
2022/04/27 03:58:48;;;;;;;;;;;;;;;6.24;82.48;98686.69;3223653;23;19923;-75
2022/04/27 04:00:05;;;;;;;;;;;;;;;6.15;81.87;98693.66;3223472;23;19927;-76
2022/04/27 04:01:20;;;;;;;;;;;;;;;6.17;82.50;98689.28;3223206;22;19923;-75
2022/04/27 04:02:37;;;;;;;;;;;;;;;6.21;82.93;98688.41;3223443;23;19973;-77
2022/04/27 04:03:52;;;;;;;;;;;;;;;6.27;83.17;98692.69;3223614;22;19943;-74
2022/04/27 04:05:08;;;;;;;;;;;;;;;6.29;82.38;98698.78;3223447;23;20083;-76
2022/04/27 04:06:23;;;;;;;;;;;;;;;6.30;82.40;98692.69;3223538;22;19965;-79
2022/04/27 04:07:39;;;;;;;;;;;;;;;6.28;82.07;98697.03;3223482;23;19931;-75
2022/04/27 04:08:54;;;;;;;;;;;;;;;6.30;81.31;98697.91;3223525;22;20378;-75
2022/04/27 04:10:10;;;;;;;;;;;;;;;6.29;81.74;98698.78;3223860;23;19970;-75
2022/04/27 04:11:25;;;;;;;;;;;;;;;6.36;81.59;98707.41;3223642;22;19930;-76
2022/04/27 04:12:41;;;;;;;;;;;;;;;6.31;81.78;98706.56;3223880;23;19983;-76
2022/04/27 04:13:56;;;;;;;;;;;;;;;6.26;81.68;98710.94;3224224;23;20786;-75
2022/04/27 04:15:13;;;;;;;;;;;;;;;6.26;81.42;98710.94;3223811;23;20342;-76
2022/04/27 04:16:28;;;;;;;;;;;;;;;6.16;81.98;98716.16;3223904;22;19923;-75
2022/04/27 04:17:46;;;;;;;;;;;;;;;6.18;81.73;98714.41;3224000;23;19923;-75
2022/04/27 04:19:02;;;;;;;;;;;;;;;6.13;82.54;98717.91;3223801;22;19924;-75
2022/04/27 04:20:18;;;;;;;;;;;;;;;6.03;82.64;98727.50;3223774;23;19939;-75
2022/04/27 04:21:33;;;;;;;;;;;;;;;5.94;82.77;98720.59;3223627;22;20010;-75
2022/04/27 04:22:49;;;;;;;;;;;;;;;5.93;82.82;98726.66;3223368;23;19958;-75
2022/04/27 04:24:04;;;;;;;;;;;;;;;5.90;83.30;98729.28;3223994;22;19927;-75
2022/04/27 04:28:31;;;;;;;;;;;;;;;5.86;84.03;98730.13;3223660;23;19923;-76
2022/04/27 04:29:46;;;;;;;;;;;;;;;5.83;84.20;98733.63;3223434;23;19923;-76
2022/04/27 04:31:03;;;;;;;;;;;;;;;5.86;85.05;98728.41;3223838;22;19924;-75
2022/04/27 04:32:18;;;;;;;;;;;;;;;5.87;84.60;98734.50;3223446;22;19923;-75
2022/04/27 04:33:34;;;;;;;;;;;;;;;5.91;84.33;98731.00;3223569;23;19928;-76
2022/04/27 04:34:50;;;;;;;;;;;;;;;5.91;84.67;98731.84;3223631;23;20014;-75
2022/04/27 04:36:07;;;;;;;;;;;;;;;5.89;84.98;98738.78;3223630;22;19954;-76
2022/04/27 04:37:23;;;;;;;;;;;;;;;5.92;84.75;98746.56;3228607;22;19930;-76
2022/04/27 04:38:39;;;;;;;;;;;;;;;5.96;85.04;98741.38;3223759;23;20410;-77
2022/04/27 04:39:54;;;;;;;;;;;;;;;5.99;84.14;98739.63;3223286;22;19974;-76
2022/04/27 04:41:10;;;;;;;;;;;;;;;6.03;84.14;98741.38;3224006;23;19923;-79
2022/04/27 04:42:25;;;;;;;;;;;;;;;6.04;85.05;98745.69;3223415;22;19929;-76
2022/04/27 04:43:41;;;;;;;;;;;;;;;6.06;84.96;98741.34;3223912;23;19924;-76
2022/04/27 04:44:57;;;;;;;;;;;;;;;6.10;85.30;98746.53;3223360;23;19923;-76
2022/04/27 04:46:12;;;;;;;;;;;;;;;6.12;85.42;98740.47;3223803;22;20350;-76
2022/04/27 04:47:28;;;;;;;;;;;;;;;6.05;85.19;98744.84;3223731;23;19923;-76
2022/04/27 04:48:43;;;;;;;;;;;;;;;6.05;84.72;98754.34;3223658;23;19924;-76
2022/04/27 04:49:58;;;;;;;;;;;;;;;6.11;84.71;98750.84;3223826;22;19923;-76
2022/04/27 04:51:14;;;;;;;;;;;;;;;6.13;84.72;98751.72;3223408;22;19930;-76
2022/04/27 04:52:30;;;;;;;;;;;;;;;6.14;84.83;98758.63;3223790;22;19920;-75
2022/04/27 04:53:45;;;;;;;;;;;;;;;6.32;83.73;98753.34;3223420;23;19919;-76
2022/04/27 04:55:00;;;;;;;;;;;;;;;6.30;83.19;98749.91;3222187;23;20342;-76
2022/04/27 04:56:16;;;;;;;;;;;;;;;6.30;83.43;98759.44;3223369;23;19919;-76
2022/04/27 04:57:32;;;;;;;;;;;;;;;6.35;83.58;98757.66;3223675;23;19924;-76
2022/04/27 04:58:47;;;;;;;;;;;;;;;6.39;83.54;98763.72;3223707;22;20369;-76
2022/04/27 05:00:03;;;;;;;;;;;;;;;6.36;83.55;98760.25;3223597;23;19924;-76
2022/04/27 05:01:19;;;;;;;;;;;;;;;6.41;83.29;98770.66;3223448;22;20706;-79
2022/04/27 05:02:34;;;;;;;;;;;;;;;6.40;84.21;98770.63;3223457;23;20010;-78
2022/04/27 05:03:50;;;;;;;;;;;;;;;6.41;84.81;98770.66;3223746;22;20030;-76
2022/04/27 05:05:05;;;;;;;;;;;;;;;6.36;85.34;98775.88;3221066;23;19927;-77
2022/04/27 05:06:21;;;;;;;;;;;;;;;6.30;85.88;98783.72;3223157;22;19931;-76
2022/04/27 05:07:37;;;;;;;;;;;;;;;6.27;85.55;98775.91;3223692;22;20002;-77
2022/04/27 05:08:52;;;;;;;;;;;;;;;6.33;84.95;98785.41;3223098;23;20018;-75
2022/04/27 05:10:08;;;;;;;;;;;;;;;6.40;84.93;98787.13;3223155;23;20342;-76
2022/04/27 05:11:23;;;;;;;;;;;;;;;6.47;85.23;98793.16;3223555;22;19931;-77
2022/04/27 05:12:39;;;;;;;;;;;;;;;6.50;84.89;98790.53;3223604;22;19923;-76
2022/04/27 05:13:54;;;;;;;;;;;;;;;6.56;83.10;98787.88;3223571;23;20294;-77
2022/04/27 05:15:09;;;;;;;;;;;;;;;6.73;82.51;98797.34;3223439;23;20335;-76
2022/04/27 05:16:26;;;;;;;;;;;;;;;6.82;82.81;98796.41;3223249;23;19927;-76
2022/04/27 05:17:41;;;;;;;;;;;;;;;6.77;83.14;98793.84;3223184;22;19969;-78
2022/04/27 05:18:56;;;;;;;;;;;;;;;6.81;83.17;98792.94;3221750;23;19930;-78
2022/04/27 05:20:12;;;;;;;;;;;;;;;6.85;83.37;98793.78;3222714;23;20243;-77
2022/04/27 05:21:27;;;;;;;;;;;;;;;6.86;83.14;98793.78;3223213;23;20310;-76
2022/04/27 05:22:43;;;;;;;;;;;;;;;6.88;83.14;98794.63;3222926;23;19945;-76
2022/04/27 05:23:58;;;;;;;;;;;;;;;6.94;83.04;98804.13;3223166;23;19931;-76
2022/04/27 05:25:13;;;;;;;;;;;;;;;7.00;82.61;98798.88;3222593;23;19924;-76
2022/04/27 05:26:29;;;;;;;;;;;;;;;6.99;83.02;98797.13;3223246;23;19919;-77
2022/04/27 05:27:45;;;;;;;;;;;;;;;7.02;82.69;98799.72;3223818;22;19923;-76
2022/04/27 05:32:08;;;;;;;;;;;;;;;7.19;81.48;98801.31;3223145;23;20368;-76
2022/04/27 05:33:24;;;;;;;;;;;;;;;7.25;81.61;98805.59;3223386;22;19947;-76
2022/04/27 05:34:40;;;;;;;;;;;;;;;7.28;81.82;98809.06;3222874;23;19924;-77
2022/04/27 05:35:56;;;;;;;;;;;;;;;7.27;81.30;98806.47;3223658;22;19924;-77
2022/04/27 05:37:12;;;;;;;;;;;;;;;7.33;80.24;98817.72;3222834;23;19976;-76
2022/04/27 05:38:28;;;;;;;;;;;;;;;7.31;80.51;98813.38;3223822;22;19995;-77
2022/04/27 05:39:43;;;;;;;;;;;;;;;7.38;80.12;98815.03;3222739;23;19924;-78
2022/04/27 05:40:59;;;;;;;;;;;;;;;7.40;80.26;98815.88;3223374;23;20002;-77
2022/04/27 05:42:15;;;;;;;;;;;;;;;7.37;80.12;98813.31;3223062;22;19924;-76
2022/04/27 05:43:30;;;;;;;;;;;;;;;7.40;79.45;98813.28;3223390;22;19919;-76
2022/04/27 05:44:45;;;;;;;;;;;;;;;7.44;79.43;98819.34;3223040;23;19932;-75
2022/04/27 05:46:01;;;;;;;;;;;;;;;7.42;79.12;98819.38;3222972;23;19919;-76
2022/04/27 05:47:16;;;;;;;;;;;;;;;7.43;79.30;98812.41;3223155;23;19926;-80
2022/04/27 05:48:32;;;;;;;;;;;;;;;7.52;79.22;98817.53;3223558;23;19931;-81
2022/04/27 05:49:47;;;;;;;;;;;;;;;7.60;78.53;98814.84;3224073;23;19982;-83
2022/04/27 05:51:03;;;;;;;;;;;;;;;7.60;78.57;98817.47;3222783;23;19938;-76
2022/04/27 05:52:20;;;;;;;;;;;;;;;7.65;77.73;98820.88;3221934;22;19923;-76
2022/04/27 05:53:35;;;;;;;;;;;;;;;7.70;77.44;98818.22;3222433;23;19994;-76
2022/04/27 05:54:51;;;;;;;;;;;;;;;7.72;76.93;98824.28;3222376;23;19931;-76
2022/04/27 05:56:07;;;;;;;;;;;;;;;7.72;77.41;98825.16;3222838;22;19928;-76
2022/04/27 05:57:22;;;;;;;;;;;;;;;7.74;77.27;98825.13;3222802;22;20480;-76
2022/04/27 05:58:38;;;;;;;;;;;;;;;7.82;77.28;98833.75;3223213;23;20255;-80
2022/04/27 05:59:53;;;;;;;;;;;;;;;7.91;77.75;98833.66;3223568;22;20003;-77
2022/04/27 06:01:09;;;;;;;;;;;;;;;7.98;77.12;98830.97;3223892;23;20400;-76
2022/04/27 06:02:24;;;;;;;;;;;;;;;8.06;77.11;98829.16;3223766;23;19924;-76
2022/04/27 06:03:40;;;;;;;;;;;;;;;8.12;76.61;98836.03;3224078;23;19977;-77
2022/04/27 06:04:55;;;;;;;;;;;;;;;8.12;77.55;98844.72;3223998;23;19958;-77
2022/04/27 06:06:10;;;;;;;;;;;;;;;8.13;76.71;98841.22;3224011;23;19924;-77
2022/04/27 06:07:26;;;;;;;;;;;;;;;8.20;76.54;98840.28;3224252;22;19923;-77
2022/04/27 06:08:42;;;;;;;;;;;;;;;8.16;76.81;98843.78;3224763;23;19924;-78
2022/04/27 06:09:57;;;;;;;;;;;;;;;8.29;77.64;98841.91;3224343;23;19920;-78
2022/04/27 06:11:12;;;;;;;;;;;;;;;8.34;78.54;98847.91;3224479;23;19920;-77
2022/04/27 06:12:34;;;;;;;;;;;;;;;8.41;78.09;98847.84;3224369;23;20321;-77
2022/04/27 06:13:50;;;;;;;;;;;;;;;8.46;77.89;98839.09;3229705;22;19924;-77
2022/04/27 06:15:10;;;;;;;;;;;;;;;8.50;77.09;98842.53;3224597;22;19930;-78
2022/04/27 06:16:27;;;;;;;;;;;;;;;8.58;77.17;98839.81;3228542;23;19928;-77
2022/04/27 06:17:42;;;;;;;;;;;;;;;8.62;76.87;98838.91;3224274;23;20248;-77
2022/04/27 06:18:58;;;;;;;;;;;;;;;8.64;76.74;98839.75;3224588;23;19925;-77
2022/04/27 06:20:13;;;;;;;;;;;;;;;8.61;76.30;98838.03;3224504;22;20011;-78
2022/04/27 06:21:31;;;;;;;;;;;;;;;8.72;76.31;98842.25;3224738;23;19927;-77
2022/04/27 06:22:47;;;;;;;;;;;;;;;8.82;75.70;98841.25;3223963;22;19931;-77
2022/04/27 06:24:04;;;;;;;;;;;;;;;8.84;75.94;98842.09;3224844;22;19923;-77
2022/04/27 06:25:20;;;;;;;;;;;;;;;8.84;76.08;98844.69;3224222;22;19984;-78
2022/04/27 06:26:36;;;;;;;;;;;;;;;8.92;74.67;98847.19;3224115;23;19928;-77
2022/04/27 06:27:52;;;;;;;;;;;;;;;9.07;74.33;98845.25;3224753;22;19926;-77
2022/04/27 06:29:07;;;;;;;;;;;;;;;9.17;73.60;98852.06;3224497;23;20018;-78
2022/04/27 06:30:25;;;;;;;;;;;;;;;9.31;72.37;98844.84;3224584;23;19977;-76
2022/04/27 06:31:40;;;;;;;;;;;;;;;9.37;71.64;98846.50;3224407;22;19928;-77
2022/04/27 06:32:56;;;;;;;;;;;;;;;9.50;71.38;98846.28;3224119;23;19943;-76
2022/04/27 06:34:12;;;;;;;;;;;;;;;9.59;71.10;98853.97;3224314;23;20240;-77
2022/04/27 06:35:27;;;;;;;;;;;;;;;9.59;70.80;98846.13;3224463;22;20299;-77
2022/04/27 06:36:42;;;;;;;;;;;;;;;9.66;70.96;98852.09;3224071;23;19931;-77
2022/04/27 06:37:58;;;;;;;;;;;;;;;9.79;70.05;98855.38;3229670;23;19962;-77
2022/04/27 06:39:15;;;;;;;;;;;;;;;9.93;70.15;98853.38;3224590;22;20382;-77
2022/04/27 06:40:30;;;;;;;;;;;;;;;10.01;69.75;98856.69;3224322;22;19923;-76
2022/04/27 06:41:45;;;;;;;;;;;;;;;10.03;69.05;98860.13;3224502;23;20400;-76
2022/04/27 06:43:01;;;;;;;;;;;;;;;10.13;70.02;98854.75;3224427;23;19931;-76
2022/04/27 06:44:17;;;;;;;;;;;;;;;10.15;69.13;98859.06;3224699;22;19998;-76
2022/04/27 06:45:32;;;;;;;;;;;;;;;10.24;68.97;98857.13;3223624;23;20337;-77
2022/04/27 06:46:48;;;;;;;;;;;;;;;10.31;68.42;98866.59;3223742;23;19923;-79
2022/04/27 06:48:04;;;;;;;;;;;;;;;10.40;69.04;98865.53;3224568;23;19924;-76
2022/04/27 06:49:19;;;;;;;;;;;;;;;10.41;68.24;98864.69;3223751;23;19928;-77
2022/04/27 06:50:35;;;;;;;;;;;;;;;10.42;68.38;98864.66;3223992;23;20371;-76
2022/04/27 06:51:50;;;;;;;;;;;;;;;10.48;67.15;98871.53;3223816;23;19923;-76
2022/04/27 06:53:06;;;;;;;;;;;;;;;10.62;67.30;98868.63;3224132;23;20053;-76
2022/04/27 06:54:21;;;;;;;;;;;;;;;10.72;66.72;98874.50;3223948;22;20576;-77